createdAt,value
2022-10-05T00:01:35.445Z,16.63
2022-10-05T00:04:18.616Z,16.62
2022-10-05T00:06:57.467Z,16.60
2022-10-05T00:09:25.753Z,16.63
2022-10-05T00:11:53.872Z,16.64
2022-10-05T00:14:32.525Z,16.65
2022-10-05T00:17:02.071Z,16.67
2022-10-05T00:19:37.232Z,16.67
2022-10-05T00:22:18.856Z,16.67
2022-10-05T00:24:50.462Z,16.68
2022-10-05T00:27:25.847Z,16.68
2022-10-05T00:30:02.800Z,16.70
2022-10-05T00:32:31.196Z,16.71
2022-10-05T00:34:59.201Z,16.72
2022-10-05T00:37:27.121Z,16.73
2022-10-05T00:39:55.157Z,16.74
2022-10-05T00:43:04.253Z,16.74
2022-10-05T00:45:48.328Z,16.74
2022-10-05T00:48:39.192Z,16.74
2022-10-05T00:51:27.255Z,16.73
2022-10-05T00:54:06.936Z,16.72
2022-10-05T00:57:34.019Z,16.73
2022-10-05T01:00:09.108Z,16.72
2022-10-05T01:03:08.874Z,16.72
2022-10-05T01:06:06.913Z,16.72
2022-10-05T01:08:46.363Z,16.71
2022-10-05T01:11:20.495Z,16.70
2022-10-05T01:14:27.859Z,16.70
2022-10-05T01:17:10.720Z,16.69
2022-10-05T01:19:56.619Z,16.70
2022-10-05T01:23:09.503Z,16.70
2022-10-05T01:26:07.947Z,16.70
2022-10-05T01:28:46.043Z,16.72
2022-10-05T01:31:34.799Z,16.72
2022-10-05T01:34:23.229Z,16.73
2022-10-05T01:37:40.795Z,16.73
2022-10-05T01:40:37.784Z,16.73
2022-10-05T01:43:28.089Z,16.73
2022-10-05T01:45:57.171Z,16.75
2022-10-05T01:49:04.869Z,16.73
2022-10-05T01:51:37.438Z,16.68
2022-10-05T01:54:20.253Z,16.67
2022-10-05T01:57:23.954Z,16.69
2022-10-05T02:00:10.950Z,16.68
2022-10-05T02:03:11.728Z,16.65
2022-10-05T02:05:52.543Z,16.65
2022-10-05T02:08:27.463Z,16.65
2022-10-05T02:11:13.141Z,16.63
2022-10-05T02:14:03.101Z,16.61
2022-10-05T02:16:43.937Z,16.61
2022-10-05T02:19:31.873Z,16.59
2022-10-05T02:22:29.772Z,16.59
2022-10-05T02:25:05.520Z,16.60
2022-10-05T02:27:48.064Z,16.60
2022-10-05T02:30:19.603Z,16.63
2022-10-05T02:33:09.386Z,16.61
2022-10-05T02:35:38.219Z,16.63
2022-10-05T02:38:51.090Z,16.63
2022-10-05T02:41:24.860Z,16.63
2022-10-05T02:44:08.100Z,16.64
2022-10-05T02:46:56.129Z,16.62
2022-10-05T02:49:31.601Z,16.61
2022-10-05T02:52:16.674Z,16.58
2022-10-05T02:55:18.950Z,16.58
2022-10-05T02:57:50.104Z,16.59
2022-10-05T03:00:22.893Z,16.57
2022-10-05T03:03:43.691Z,16.58
2022-10-05T03:06:25.732Z,16.58
2022-10-05T03:09:04.348Z,16.59
2022-10-05T03:12:01.507Z,16.59
2022-10-05T03:15:27.204Z,16.59
2022-10-05T03:18:13.695Z,16.60
2022-10-05T03:21:09.780Z,16.60
2022-10-05T03:24:02.081Z,16.61
2022-10-05T03:27:11.379Z,16.62
2022-10-05T03:30:14.091Z,16.61
2022-10-05T03:33:24.868Z,16.62
2022-10-05T03:36:13.624Z,16.61
2022-10-05T03:39:14.477Z,16.64
2022-10-05T03:42:15.213Z,16.63
2022-10-05T03:45:00.768Z,16.61
2022-10-05T03:47:44.069Z,16.63
2022-10-05T03:51:03.245Z,16.64
2022-10-05T03:53:44.803Z,16.64
2022-10-05T03:56:51.495Z,16.63
2022-10-05T03:59:32.661Z,16.64
2022-10-05T04:02:13.040Z,16.65
2022-10-05T04:04:49.765Z,16.65
2022-10-05T04:07:46.930Z,16.65
2022-10-05T04:10:28.305Z,16.63
2022-10-05T04:13:11.736Z,16.65
2022-10-05T04:15:45.814Z,16.64
2022-10-05T04:18:31.422Z,16.64
2022-10-05T04:21:24.175Z,16.63
2022-10-05T04:24:06.590Z,16.62
2022-10-05T04:26:49.826Z,16.63
2022-10-05T04:29:25.381Z,16.64
2022-10-05T04:32:31.343Z,16.63
2022-10-05T04:35:33.507Z,16.66
2022-10-05T04:38:29.320Z,16.66
2022-10-05T04:41:24.842Z,16.65
2022-10-05T04:44:36.019Z,16.65
2022-10-05T04:47:27.807Z,16.66
2022-10-05T04:49:58.736Z,16.65
2022-10-05T04:53:11.916Z,16.65
2022-10-05T04:56:10.503Z,16.62
2022-10-05T04:59:06.664Z,16.63
2022-10-05T05:01:58.824Z,16.63
2022-10-05T05:05:08.108Z,16.64
2022-10-05T05:08:15.410Z,16.63
2022-10-05T05:11:22.395Z,16.64
2022-10-05T05:14:17.705Z,16.63
2022-10-05T05:17:17.043Z,16.61
2022-10-05T05:20:16.312Z,16.62
2022-10-05T05:23:17.716Z,16.62
2022-10-05T05:26:17.391Z,16.60
2022-10-05T05:29:42.840Z,16.59
2022-10-05T05:32:26.019Z,16.60
2022-10-05T05:35:21.444Z,16.61
2022-10-05T05:37:52.375Z,16.60
2022-10-05T05:40:30.685Z,16.61
2022-10-05T05:43:55.090Z,16.62
2022-10-05T05:47:02.312Z,16.60
2022-10-05T05:50:07.298Z,16.56
2022-10-05T05:52:49.453Z,16.56
2022-10-05T05:55:29.876Z,16.57
2022-10-05T05:58:27.065Z,16.54
2022-10-05T06:01:01.105Z,16.57
2022-10-05T06:03:44.815Z,16.56
2022-10-05T06:06:17.844Z,16.57
2022-10-05T06:09:04.373Z,16.58
2022-10-05T06:11:52.238Z,16.59
2022-10-05T06:14:37.505Z,16.60
2022-10-05T06:17:15.966Z,16.59
2022-10-05T06:19:47.249Z,16.57
2022-10-05T06:22:22.369Z,16.58
2022-10-05T06:25:12.709Z,16.59
2022-10-05T06:28:19.669Z,16.58
2022-10-05T06:31:29.839Z,16.58
2022-10-05T06:34:39.680Z,16.58
2022-10-05T06:37:28.661Z,16.54
2022-10-05T06:40:11.520Z,16.54
2022-10-05T06:43:15.143Z,16.54
2022-10-05T06:46:40.041Z,16.51
2022-10-05T06:49:58.504Z,16.50
2022-10-05T06:52:57.837Z,16.49
2022-10-05T06:55:49.670Z,16.48
2022-10-05T06:58:47.761Z,16.48
2022-10-05T07:01:44.651Z,16.47
2022-10-05T07:04:13.206Z,16.49
2022-10-05T07:07:00.139Z,16.51
2022-10-05T07:09:34.400Z,16.54
2022-10-05T07:13:08.029Z,16.54
2022-10-05T07:15:58.977Z,16.56
2022-10-05T07:19:14.360Z,16.60
2022-10-05T07:22:46.811Z,16.60
2022-10-05T07:25:32.059Z,16.61
2022-10-05T07:28:38.565Z,16.61
2022-10-05T07:31:24.133Z,16.64
2022-10-05T07:34:15.093Z,16.64
2022-10-05T07:37:28.071Z,16.66
2022-10-05T07:40:23.103Z,16.68
2022-10-05T07:43:22.221Z,16.72
2022-10-05T07:46:08.215Z,16.75
2022-10-05T07:49:07.452Z,16.75
2022-10-05T07:51:45.277Z,16.76
2022-10-05T07:54:32.581Z,16.75
2022-10-05T07:57:24.280Z,16.78
2022-10-05T08:00:07.441Z,16.83
2022-10-05T08:03:07.160Z,16.85
2022-10-05T08:05:42.405Z,16.87
2022-10-05T08:08:57.263Z,16.91
2022-10-05T08:11:37.921Z,16.95
2022-10-05T08:14:24.461Z,16.96
2022-10-05T08:16:59.904Z,16.98
2022-10-05T08:19:43.636Z,17.02
2022-10-05T08:22:25.133Z,17.09
2022-10-05T08:25:05.371Z,17.12
2022-10-05T08:27:49.316Z,17.16
2022-10-05T08:30:17.811Z,17.21
2022-10-05T08:33:05.693Z,17.27
2022-10-05T08:35:45.040Z,17.32
2022-10-05T08:38:31.666Z,17.33
2022-10-05T08:41:41.423Z,17.38
2022-10-05T08:44:43.516Z,17.48
2022-10-05T08:47:50.799Z,17.54
2022-10-05T08:50:35.746Z,17.61
2022-10-05T08:53:30.364Z,17.67
2022-10-05T08:56:10.020Z,17.76
2022-10-05T08:59:14.791Z,17.85
2022-10-05T09:02:32.023Z,17.97
2022-10-05T09:05:41.745Z,17.99
2022-10-05T09:08:49.575Z,18.09
2022-10-05T09:11:34.799Z,18.16
2022-10-05T09:14:17.633Z,18.20
2022-10-05T09:16:53.059Z,18.26
2022-10-05T09:19:53.667Z,18.36
2022-10-05T09:22:59.118Z,18.48
2022-10-05T09:25:45.418Z,18.51
2022-10-05T09:28:39.680Z,18.53
2022-10-05T09:31:24.381Z,18.60
2022-10-05T09:34:39.052Z,18.76
2022-10-05T09:37:44.264Z,18.88
2022-10-05T09:40:32.964Z,18.90
2022-10-05T09:43:13.148Z,18.91
2022-10-05T09:46:23.575Z,19.01
2022-10-05T09:49:14.100Z,19.17
2022-10-05T09:52:17.917Z,19.23
2022-10-05T09:55:07.356Z,19.33
2022-10-05T09:57:53.045Z,19.45
2022-10-05T10:01:09.276Z,19.61
2022-10-05T10:04:16.176Z,19.80
2022-10-05T10:07:04.616Z,19.80
2022-10-05T10:10:30.393Z,19.79
2022-10-05T10:13:35.979Z,19.70
2022-10-05T10:16:49.786Z,19.64
2022-10-05T10:19:29.892Z,19.59
2022-10-05T10:22:43.871Z,19.50
2022-10-05T10:26:20.780Z,19.42
2022-10-05T10:29:13.760Z,19.32
2022-10-05T10:31:50.997Z,19.23
2022-10-05T10:34:44.495Z,19.19
2022-10-05T10:37:35.698Z,19.19
2022-10-05T10:40:26.113Z,19.19
2022-10-05T10:43:24.503Z,19.10
2022-10-05T10:46:20.231Z,19.09
2022-10-05T10:49:02.668Z,19.09
2022-10-05T10:52:10.503Z,19.11
2022-10-05T10:55:27.298Z,19.07
2022-10-05T10:58:55.908Z,19.00
2022-10-05T11:01:52.777Z,18.98
2022-10-05T11:05:13.450Z,18.92
2022-10-05T11:08:05.797Z,18.87
2022-10-05T11:10:55.229Z,18.81
2022-10-05T11:13:52.261Z,18.76
2022-10-05T11:16:37.875Z,18.71
2022-10-05T11:20:07.078Z,18.68
2022-10-05T11:23:04.818Z,18.63
2022-10-05T11:25:55.513Z,18.54
2022-10-05T11:29:03.917Z,18.51
2022-10-05T11:32:42.715Z,18.40
2022-10-05T11:35:41.444Z,18.19
2022-10-05T11:39:02.378Z,18.03
2022-10-05T11:42:06.406Z,17.93
2022-10-05T11:45:18.915Z,17.87
2022-10-05T11:48:13.927Z,17.77
2022-10-05T11:51:19.545Z,17.67
2022-10-05T11:54:09.989Z,17.57
2022-10-05T11:56:56.732Z,17.47
2022-10-05T11:59:58.243Z,17.35
2022-10-05T12:03:15.547Z,17.23
2022-10-05T12:06:22.008Z,17.13
2022-10-05T12:09:14.924Z,17.05
2022-10-05T12:11:58.552Z,16.99
2022-10-05T12:15:00.442Z,16.97
2022-10-05T12:17:55.060Z,16.95
2022-10-05T12:20:40.743Z,16.86
2022-10-05T12:23:21.752Z,16.79
2022-10-05T12:26:05.548Z,16.72
2022-10-05T12:28:49.561Z,16.66
2022-10-05T12:31:21.493Z,16.65
2022-10-05T12:34:35.865Z,16.67
2022-10-05T12:37:27.724Z,16.67
2022-10-05T12:40:31.234Z,16.69
2022-10-05T12:43:32.411Z,16.70
2022-10-05T12:46:34.397Z,16.68
2022-10-05T12:49:40.421Z,16.69
2022-10-05T12:52:35.039Z,16.75
2022-10-05T12:55:56.460Z,16.76
2022-10-05T12:58:51.681Z,16.84
2022-10-05T13:01:36.622Z,16.91
2022-10-05T13:04:25.940Z,16.90
2022-10-05T13:07:21.840Z,16.87
2022-10-05T13:09:57.583Z,16.83
2022-10-05T13:12:36.098Z,16.81
2022-10-05T13:15:22.660Z,16.83
2022-10-05T13:18:04.337Z,16.85
2022-10-05T13:20:45.690Z,16.85
2022-10-05T13:23:25.122Z,16.85
2022-10-05T13:26:08.070Z,16.84
2022-10-05T13:28:55.766Z,16.82
2022-10-05T13:31:34.834Z,16.78
2022-10-05T13:34:27.563Z,16.73
2022-10-05T13:37:27.047Z,16.73
2022-10-05T13:40:28.342Z,16.82
2022-10-05T13:43:13.397Z,16.93
2022-10-05T13:46:10.601Z,17.00
2022-10-05T13:49:00.173Z,16.99
2022-10-05T13:51:46.436Z,16.90
2022-10-05T13:54:39.411Z,16.84
2022-10-05T13:57:55.571Z,16.77
2022-10-05T14:00:27.052Z,16.69
2022-10-05T14:03:00.949Z,16.58
2022-10-05T14:05:31.688Z,16.45
2022-10-05T14:08:02.497Z,16.26
2022-10-05T14:10:39.133Z,16.12
2022-10-05T14:13:13.462Z,16.19
2022-10-05T14:15:42.469Z,16.27
2022-10-05T14:18:26.526Z,16.33
2022-10-05T14:21:12.776Z,16.37
2022-10-05T14:23:41.051Z,16.33
2022-10-05T14:26:27.398Z,16.28
2022-10-05T14:29:03.364Z,16.33
2022-10-05T14:31:37.240Z,16.40
2022-10-05T14:34:29.299Z,16.45
2022-10-05T14:37:26.281Z,16.49
2022-10-05T14:40:20.391Z,16.57
2022-10-05T14:42:49.654Z,16.65
2022-10-05T14:45:26.676Z,16.65
2022-10-05T14:48:01.702Z,16.63
2022-10-05T14:50:32.234Z,16.55
2022-10-05T14:53:03.092Z,16.51
2022-10-05T14:56:03.756Z,16.47
2022-10-05T14:59:14.195Z,16.45
2022-10-05T15:02:26.891Z,16.43
2022-10-05T15:05:48.065Z,16.39
2022-10-05T15:09:16.440Z,16.34
2022-10-05T15:12:01.438Z,16.35
2022-10-05T15:14:40.268Z,16.33
2022-10-05T15:17:44.961Z,16.29
2022-10-05T15:20:24.676Z,16.25
2022-10-05T15:23:14.017Z,16.19
2022-10-05T15:26:07.805Z,16.13
2022-10-05T15:29:04.428Z,16.07
2022-10-05T15:31:48.907Z,16.00
2022-10-05T15:34:34.493Z,15.95
2022-10-05T15:37:23.910Z,15.88
2022-10-05T15:39:58.243Z,15.76
2022-10-05T15:42:45.291Z,15.73
2022-10-05T15:45:30.248Z,15.70
2022-10-05T15:48:25.455Z,15.62
2022-10-05T15:51:24.204Z,15.51
2022-10-05T15:54:19.384Z,15.51
2022-10-05T15:57:01.852Z,15.53
2022-10-05T15:59:56.970Z,15.54
2022-10-05T16:02:54.451Z,15.46
2022-10-05T16:05:55.824Z,15.36
2022-10-05T16:08:51.029Z,15.23
2022-10-05T16:11:40.641Z,15.12
2022-10-05T16:14:33.316Z,15.07
2022-10-05T16:17:28.728Z,15.04
2022-10-05T16:20:25.830Z,15.03
2022-10-05T16:23:18.700Z,15.04
2022-10-05T16:26:31.742Z,15.03
2022-10-05T16:29:21.276Z,14.99
2022-10-05T16:32:20.507Z,14.96
2022-10-05T16:35:15.948Z,14.84
2022-10-05T16:38:05.443Z,14.71
2022-10-05T16:40:44.232Z,14.63
2022-10-05T16:43:44.896Z,14.59
2022-10-05T16:46:52.669Z,14.58
2022-10-05T16:49:45.031Z,14.58
2022-10-05T16:52:23.454Z,14.56
2022-10-05T16:54:57.464Z,14.54
2022-10-05T16:57:36.681Z,14.52
2022-10-05T17:00:34.002Z,14.48
2022-10-05T17:03:45.623Z,14.41
2022-10-05T17:06:54.231Z,14.40
2022-10-05T17:09:47.268Z,14.33
2022-10-05T17:12:46.577Z,14.31
2022-10-05T17:15:47.819Z,14.31
2022-10-05T17:18:27.806Z,14.33
2022-10-05T17:21:40.084Z,14.37
2022-10-05T17:24:47.691Z,14.39
2022-10-05T17:27:33.781Z,14.40
2022-10-05T17:31:00.683Z,14.37
2022-10-05T17:33:33.953Z,14.25
2022-10-05T17:36:06.339Z,14.17
2022-10-05T17:38:40.627Z,14.12
2022-10-05T17:41:17.395Z,14.07
2022-10-05T17:44:07.111Z,14.04
2022-10-05T17:46:47.855Z,13.96
2022-10-05T17:49:34.101Z,13.89
2022-10-05T17:52:39.215Z,13.87
2022-10-05T17:55:34.244Z,13.81
2022-10-05T17:58:26.000Z,13.78
2022-10-05T18:00:56.830Z,13.75
2022-10-05T18:03:50.475Z,13.73
2022-10-05T18:06:39.053Z,13.70
2022-10-05T18:09:21.008Z,13.65
2022-10-05T18:12:03.939Z,13.61
2022-10-05T18:15:21.349Z,13.56
2022-10-05T18:18:38.671Z,13.45
2022-10-05T18:21:15.337Z,13.41
2022-10-05T18:23:52.303Z,13.36
2022-10-05T18:26:46.672Z,13.31
2022-10-05T18:30:05.341Z,13.27
2022-10-05T18:32:53.351Z,13.23
2022-10-05T18:35:37.153Z,13.15
2022-10-05T18:38:42.362Z,13.10
2022-10-05T18:41:38.088Z,13.06
2022-10-05T18:44:14.908Z,13.03
2022-10-05T18:46:51.622Z,13.01
2022-10-05T18:49:41.481Z,12.98
2022-10-05T18:52:18.050Z,12.92
2022-10-05T18:55:09.945Z,12.88
2022-10-05T18:57:59.481Z,12.86
2022-10-05T19:01:11.264Z,12.85
2022-10-05T19:04:03.340Z,12.81
2022-10-05T19:06:35.292Z,12.75
2022-10-05T19:09:31.388Z,12.71
2022-10-05T19:12:20.754Z,12.68
2022-10-05T19:15:06.666Z,12.65
2022-10-05T19:18:11.625Z,12.63
2022-10-05T19:21:08.720Z,12.61
2022-10-05T19:24:00.011Z,12.54
2022-10-05T19:27:34.749Z,12.50
2022-10-05T19:30:23.052Z,12.48
2022-10-05T19:33:01.815Z,12.48
2022-10-05T19:35:53.644Z,12.48
2022-10-05T19:38:37.185Z,12.42
2022-10-05T19:41:35.657Z,12.38
2022-10-05T19:44:45.167Z,12.33
2022-10-05T19:47:43.963Z,12.29
2022-10-05T19:50:23.769Z,12.27
2022-10-05T19:53:04.074Z,12.26
2022-10-05T19:55:47.137Z,12.26
2022-10-05T19:58:30.017Z,12.20
2022-10-05T20:01:01.580Z,12.15
2022-10-05T20:03:32.632Z,12.12
2022-10-05T20:06:04.034Z,12.11
2022-10-05T20:08:41.907Z,12.10
2022-10-05T20:11:18.976Z,12.09
2022-10-05T20:14:07.681Z,12.05
2022-10-05T20:16:55.126Z,12.01
2022-10-05T20:19:50.672Z,11.94
2022-10-05T20:22:47.058Z,11.88
2022-10-05T20:25:17.930Z,11.82
2022-10-05T20:27:55.605Z,11.77
2022-10-05T20:30:29.227Z,11.74
2022-10-05T20:33:00.256Z,11.75
2022-10-05T20:35:30.816Z,11.73
2022-10-05T20:38:00.398Z,11.68
2022-10-05T20:40:30.611Z,11.64
2022-10-05T20:42:59.034Z,11.58
2022-10-05T20:45:26.945Z,11.54
2022-10-05T20:47:55.157Z,11.52
2022-10-05T20:50:23.556Z,11.48
2022-10-05T20:52:51.480Z,11.45
2022-10-05T20:55:20.767Z,11.42
2022-10-05T20:57:48.729Z,11.41
2022-10-05T21:00:16.674Z,11.36
2022-10-05T21:02:44.737Z,11.34
2022-10-05T21:05:14.452Z,11.32
2022-10-05T21:07:43.063Z,11.32
2022-10-05T21:10:11.863Z,11.34
2022-10-05T21:12:42.977Z,11.30
2022-10-05T21:15:14.106Z,11.31
2022-10-05T21:17:42.288Z,11.31
2022-10-05T21:20:11.581Z,11.30
2022-10-05T21:22:41.349Z,11.27
2022-10-05T21:25:11.997Z,11.25
2022-10-05T21:27:43.252Z,11.23
2022-10-05T21:30:13.024Z,11.19
2022-10-05T21:32:44.415Z,11.17
2022-10-05T21:35:12.959Z,11.14
2022-10-05T21:37:41.689Z,11.14
2022-10-05T21:40:10.636Z,11.09
2022-10-05T21:42:39.362Z,11.06
2022-10-05T21:45:08.810Z,11.04
2022-10-05T21:47:39.759Z,11.01
2022-10-05T21:50:08.940Z,10.99
2022-10-05T21:52:38.470Z,10.97
2022-10-05T21:55:08.100Z,10.92
2022-10-05T21:57:37.773Z,10.87
2022-10-05T22:00:08.540Z,10.85
2022-10-05T22:02:37.364Z,10.82
2022-10-05T22:05:05.718Z,10.79
2022-10-05T22:07:35.064Z,10.77
2022-10-05T22:10:04.164Z,10.75
2022-10-05T22:12:33.107Z,10.71
2022-10-05T22:15:01.336Z,10.69
2022-10-05T22:17:31.803Z,10.67
2022-10-05T22:20:00.876Z,10.63
2022-10-05T22:22:29.967Z,10.61
2022-10-05T22:24:57.857Z,10.59
2022-10-05T22:27:29.362Z,10.58
2022-10-05T22:29:58.358Z,10.55
2022-10-05T22:32:26.356Z,10.53
2022-10-05T22:34:54.575Z,10.53
2022-10-05T22:37:22.604Z,10.54
2022-10-05T22:39:50.609Z,10.53
2022-10-05T22:42:18.642Z,10.50
2022-10-05T22:44:46.599Z,10.50
2022-10-05T22:47:14.852Z,10.46
2022-10-05T22:49:42.827Z,10.41
2022-10-05T22:52:10.740Z,10.37
2022-10-05T22:54:38.598Z,10.34
2022-10-05T22:57:06.824Z,10.29
2022-10-05T22:59:34.912Z,10.26
2022-10-05T23:02:02.980Z,10.24
2022-10-05T23:04:31.308Z,10.23
2022-10-05T23:06:59.229Z,10.21
2022-10-05T23:09:27.124Z,10.18
2022-10-05T23:11:55.001Z,10.17
2022-10-05T23:14:23.729Z,10.16
2022-10-05T23:16:51.758Z,10.16
2022-10-05T23:19:19.847Z,10.15
2022-10-05T23:21:47.799Z,10.14
2022-10-05T23:24:15.753Z,10.12
2022-10-05T23:26:43.762Z,10.10
2022-10-05T23:29:11.748Z,10.11
2022-10-05T23:31:39.666Z,10.10
2022-10-05T23:34:07.725Z,10.08
2022-10-05T23:36:35.981Z,10.08
2022-10-05T23:39:04.069Z,10.08
2022-10-05T23:41:32.469Z,10.06
2022-10-05T23:44:00.444Z,10.03
2022-10-05T23:46:28.482Z,9.99
2022-10-05T23:48:56.605Z,9.99
2022-10-05T23:51:24.600Z,9.94
2022-10-05T23:53:52.507Z,9.90
2022-10-05T23:56:20.431Z,9.86
2022-10-05T23:58:48.300Z,9.82
